tititudorancea.com
Station Historical Data
Daily Summary for March 20, 2018 Units:  Metric    English   Both
« Previous Day
Next Day »
Daily Weekly Monthly Yearly Custom
  High: Low: Average:
Temperature: -17.8 °C 10.4 °C 13.2 °C
Dew Point: -17.8 °C 4.1 °C 7.6 °C
Humidity: Humidity % 41 % 71 %
Wind Speed: 0 km/h 1.9 km/h 14 km/h
Wind Gust: 0 km/h - -
Wind:- - SSW
Pressure: 0 hPa 1018.8 hPa -
Precipitation: 0.51 mm    
Historical Graphs
 
 
Ararat weather Find more about Weather in Ararat, AU


 



 


Tabular Data for March 20, 2018
Time Temperature Dew Point Pressure Wind Wind Speed Wind Gust Humidity Rainfall Rate (Hourly)
-17.8 °C -17.8 °C 0 hPa Calm     Humidity % 0 mm
00:02 13.6 °C 12.3 °C 1018.8 hPa South 11.6 km/h 27.8 km/h 92 % 0 mm
00:07 13.4 °C 12.2 °C 1018.8 hPa North 13.7 km/h 20.4 km/h 92 % 0 mm
00:12 13.4 °C 12.3 °C 1018.8 hPa North 11.7 km/h 18.5 km/h 93 % 0 mm
00:17 13.3 °C 12.2 °C 1019.2 hPa North 7.7 km/h 14.8 km/h 93 % 0 mm
00:22 13.2 °C 12.1 °C 1019.2 hPa North 16.1 km/h 20.4 km/h 93 % 0 mm
00:27 13.1 °C 11.9 °C 1019.2 hPa North 12.6 km/h 16.7 km/h 93 % 0.25 mm
00:33 13 °C 11.9 °C 1019.5 hPa North 8.5 km/h 9.7 km/h 93 % 0 mm
00:38 12.8 °C 11.7 °C 1019.5 hPa SSW 11.1 km/h 18.5 km/h 93 % 0.51 mm
00:43 12.7 °C 11.6 °C 1019.5 hPa North 10 km/h 14.8 km/h 93 % 0.51 mm
00:48 12.7 °C 11.6 °C 1019.5 hPa North 11.9 km/h 18.5 km/h 93 % 0.51 mm
00:53 12.7 °C 11.6 °C 1019.5 hPa SSW 11.9 km/h 20.4 km/h 93 % 0.51 mm
00:58 12.7 °C 11.6 °C 1019.5 hPa SSW 12.4 km/h 16.7 km/h 93 % 0.51 mm
01:03 12.7 °C 11.6 °C 1019.5 hPa SSW 10.3 km/h 13 km/h 93 % 0.25 mm
01:08 12.7 °C 11.6 °C 1019.5 hPa North 10.5 km/h 16.7 km/h 93 % 0.25 mm
01:13 12.7 °C 11.6 °C 1019.5 hPa SSW 10 km/h 20.4 km/h 93 % 0.25 mm
01:18 12.7 °C 11.4 °C 1019.5 hPa SSW 8.7 km/h 14.8 km/h 92 % 0.25 mm
01:23 12.7 °C 11.4 °C 1019.5 hPa SSW 12.9 km/h 18.5 km/h 92 % 0 mm
01:28 12.8 °C 11.5 °C 1019.5 hPa SSW 9.8 km/h 14.8 km/h 92 % 0 mm
01:33 12.8 °C 11.5 °C 1019.5 hPa SSW 13.8 km/h 14.5 km/h 92 % 0 mm
01:38 12.8 °C 11.6 °C 1019.5 hPa North 10.8 km/h 14.8 km/h 92 % 0 mm
01:43 12.9 °C 11.4 °C 1019.5 hPa North 12.6 km/h 18.5 km/h 91 % 0 mm
01:48 12.9 °C 11.4 °C 1019.5 hPa North 8.2 km/h 11.1 km/h 91 % 0 mm
01:53 12.9 °C 11.5 °C 1019.5 hPa North 7.7 km/h 13 km/h 91 % 0 mm
01:58 13 °C 11.6 °C 1019.9 hPa SSW 4.8 km/h 8 km/h 91 % 0 mm
02:03 13 °C 11.6 °C 1019.5 hPa SSW 5.8 km/h 7.4 km/h 91 % 0 mm
02:08 13.1 °C 11.6 °C 1019.9 hPa SSW 7.2 km/h 13 km/h 91 % 0 mm
02:13 13.1 °C 11.6 °C 1019.5 hPa North 4.3 km/h 5.6 km/h 91 % 0 mm
02:18 13.1 °C 11.4 °C 1019.5 hPa North 6.6 km/h 11.3 km/h 90 % 0 mm
02:23 13.1 °C 11.5 °C 1019.9 hPa North 8.5 km/h 13 km/h 90 % 0 mm
02:28 13.1 °C 11.4 °C 1019.9 hPa SSW 8.5 km/h 11.1 km/h 90 % 0 mm
02:33 13.1 °C 11.4 °C 1019.9 hPa SSW 10.3 km/h 14.8 km/h 90 % 0 mm
02:38 13.1 °C 11.4 °C 1019.9 hPa North 6.8 km/h 11.3 km/h 90 % 0 mm
02:43 13 °C 11.4 °C 1019.9 hPa North 11.6 km/h 16.7 km/h 90 % 0 mm
02:48 13.1 °C 11.4 °C 1019.9 hPa North 5.8 km/h 9.7 km/h 90 % 0 mm
02:53 13.1 °C 11.4 °C 1019.9 hPa North 8 km/h 14.8 km/h 90 % 0 mm
02:58 13.1 °C 11.5 °C 1019.9 hPa North 6.3 km/h 11.1 km/h 90 % 0 mm
03:03 13.1 °C 11.5 °C 1019.9 hPa SW 9.8 km/h 14.8 km/h 90 % 0 mm
03:08 13.1 °C 11.4 °C 1019.9 hPa SSW 8 km/h 13 km/h 90 % 0 mm
03:13 13.1 °C 11.4 °C 1019.9 hPa SW 6.4 km/h 14.8 km/h 90 % 0 mm
03:18 13 °C 11.4 °C 1019.9 hPa SW 7.6 km/h 9.3 km/h 90 % 0 mm
03:23 13 °C 11.4 °C 1020.2 hPa North 8.5 km/h 9.7 km/h 90 % 0 mm
03:28 13 °C 11.4 °C 1020.2 hPa North 5 km/h 5.6 km/h 90 % 0 mm
03:33 13 °C 11.4 °C 1020.2 hPa SSW 8 km/h 16.1 km/h 90 % 0 mm
03:38 13 °C 11.6 °C 1020.2 hPa North 9.2 km/h 14.8 km/h 91 % 0 mm
03:43 12.9 °C 11.3 °C 1020.2 hPa SSW 8.2 km/h 11.1 km/h 90 % 0 mm
03:48 13 °C 11.4 °C 1020.2 hPa South 8.5 km/h 13 km/h 90 % 0 mm
03:53 12.9 °C 11.3 °C 1020.2 hPa South 10.8 km/h 16.7 km/h 90 % 0 mm
03:58 12.9 °C 11.3 °C 1020.2 hPa South 10.6 km/h 16.7 km/h 90 % 0 mm
04:03 12.9 °C 11.4 °C 1020.2 hPa North 8.9 km/h 14.8 km/h 91 % 0 mm
04:08 12.9 °C 11.4 °C 1020.5 hPa South 8.7 km/h 13 km/h 91 % 0 mm
04:13 12.8 °C 11.4 °C 1020.5 hPa South 7.2 km/h 13 km/h 91 % 0 mm
04:18 12.8 °C 11.4 °C 1020.5 hPa North 4.8 km/h 7.4 km/h 91 % 0 mm
04:23 12.8 °C 11.3 °C 1020.5 hPa South 7.1 km/h 11.1 km/h 91 % 0 mm
04:28 12.7 °C 11.3 °C 1020.5 hPa South 2.7 km/h 5.6 km/h 91 % 0 mm
04:30 12.7 °C 11.2 °C 1020.5 hPa South 7.1 km/h 11.3 km/h 91 % 0 mm
04:35 12.6 °C 11.2 °C 1020.5 hPa North 5.6 km/h 7.4 km/h 91 % 0 mm
04:40 12.4 °C 11 °C 1020.5 hPa North 6.9 km/h 9.3 km/h 91 % 0 mm
04:45 12.3 °C 10.9 °C 1020.5 hPa South 4.5 km/h 9.3 km/h 91 % 0 mm
04:50 12.2 °C 10.8 °C 1020.9 hPa North 5.1 km/h 6.4 km/h 91 % 0 mm
04:55 12.2 °C 10.9 °C 1020.9 hPa North 4.3 km/h 7.4 km/h 92 % 0 mm
05:00 12.1 °C 10.6 °C 1020.9 hPa North 4.5 km/h 7.4 km/h 91 % 0 mm
05:05 11.9 °C 10.7 °C 1020.9 hPa North 5.5 km/h 9.3 km/h 92 % 0 mm
05:10 11.9 °C 10.6 °C 1020.9 hPa South 6 km/h 7.4 km/h 92 % 0 mm
05:15 11.8 °C 10.5 °C 1020.9 hPa North 6.6 km/h 8 km/h 92 % 0 mm
05:20 11.7 °C 10.4 °C 1020.9 hPa South 4.2 km/h 5.6 km/h 92 % 0 mm
05:25 11.6 °C 10.3 °C 1020.9 hPa North 3.9 km/h 7.4 km/h 92 % 0 mm
05:30 11.6 °C 10.3 °C 1020.9 hPa South 3.5 km/h 5.6 km/h 92 % 0 mm
05:35 11.4 °C 10.2 °C 1021.2 hPa North 4.3 km/h 9.3 km/h 92 % 0 mm
05:40 11.4 °C 10.1 °C 1021.2 hPa South 5.1 km/h 5.6 km/h 92 % 0 mm
05:45 11.3 °C 10 °C 1021.2 hPa South 3.5 km/h 6.4 km/h 92 % 0 mm
05:50 11.2 °C 9.9 °C 1021.2 hPa South 6.1 km/h 9.3 km/h 92 % 0 mm
05:55 11.2 °C 9.9 °C 1021.2 hPa North 2.9 km/h 7.4 km/h 92 % 0 mm
06:00 11.1 °C 9.8 °C 1021.6 hPa North 4.2 km/h 11.1 km/h 92 % 0 mm
06:05 11 °C 9.7 °C 1021.6 hPa South 4.5 km/h 8 km/h 92 % 0 mm
06:10 10.9 °C 9.8 °C 1021.6 hPa South 5.1 km/h 7.4 km/h 93 % 0 mm
06:15 10.9 °C 9.7 °C 1021.6 hPa South 1.9 km/h 5.6 km/h 92 % 0 mm
06:20 10.8 °C 9.6 °C 1021.6 hPa North 5.5 km/h 7.4 km/h 92 % 0 mm
06:25 10.7 °C 9.6 °C 1021.9 hPa North 4.2 km/h 11.1 km/h 93 % 0 mm
06:30 10.6 °C 9.5 °C 1021.9 hPa North 6.9 km/h 9.3 km/h 93 % 0 mm
06:35 10.6 °C 9.5 °C 1022.2 hPa North 7.1 km/h 13 km/h 93 % 0 mm
06:40 10.6 °C 9.4 °C 1022.2 hPa North 9.7 km/h 13 km/h 93 % 0 mm
06:45 10.6 °C 9.3 °C 1022.2 hPa South 10.5 km/h 14.8 km/h 92 % 0 mm
06:50 10.6 °C 9.4 °C 1022.6 hPa South 9.8 km/h 11.1 km/h 92 % 0 mm
06:55 10.7 °C 9.5 °C 1022.6 hPa North 11.4 km/h 18.5 km/h 92 % 0 mm
07:00 10.8 °C 9.6 °C 1022.6 hPa North 6.9 km/h 11.1 km/h 92 % 0 mm
07:05 10.9 °C 9.7 °C 1022.6 hPa South 9.7 km/h 11.3 km/h 92 % 0 mm
07:10 10.9 °C 9.6 °C 1022.6 hPa North 10 km/h 14.8 km/h 91 % 0 mm
07:15 11 °C 9.6 °C 1022.9 hPa South 4.3 km/h 11.1 km/h 91 % 0 mm
07:20 10.9 °C 9.6 °C 1022.9 hPa North 4.3 km/h 11.1 km/h 91 % 0 mm
07:25 10.9 °C 9.6 °C 1023.2 hPa North 8.2 km/h 14.8 km/h 91 % 0 mm
07:30 10.8 °C 9.3 °C 1023.2 hPa South 6.6 km/h 11.1 km/h 90 % 0 mm
07:35 10.8 °C 9.2 °C 1023.2 hPa South 8.7 km/h 11.3 km/h 90 % 0 mm
07:40 10.7 °C 9.2 °C 1023.2 hPa South 8.9 km/h 16.7 km/h 90 % 0 mm
07:45 10.7 °C 8.9 °C 1023.6 hPa South 5.8 km/h 11.3 km/h 89 % 0 mm
07:50 10.6 °C 8.9 °C 1023.6 hPa North 4.3 km/h 9.3 km/h 89 % 0 mm
07:55 10.6 °C 8.8 °C 1023.6 hPa South 5.5 km/h 11.1 km/h 89 % 0 mm
08:01 10.6 °C 8.8 °C 1023.9 hPa North 6.4 km/h 13 km/h 89 % 0 mm
08:06 10.6 °C 8.9 °C 1023.9 hPa South 6.8 km/h 12.9 km/h 89 % 0 mm
08:11 10.7 °C 8.9 °C 1023.9 hPa South 8.5 km/h 11.1 km/h 89 % 0 mm
08:16 10.7 °C 8.8 °C 1023.9 hPa South 7.7 km/h 14.5 km/h 88 % 0 mm
08:21 10.8 °C 8.9 °C 1024.3 hPa North 7.4 km/h 11.1 km/h 88 % 0 mm
08:26 10.9 °C 9.1 °C 1024.3 hPa South 12.2 km/h 16.7 km/h 88 % 0 mm
08:31 11.1 °C 9.2 °C 1024.3 hPa South 7.6 km/h 13 km/h 88 % 0 mm
08:36 11.3 °C 9.4 °C 1024.3 hPa North 9.5 km/h 13 km/h 88 % 0 mm
08:41 11.4 °C 9.3 °C 1024.3 hPa South 8.2 km/h 11.1 km/h 87 % 0 mm
08:46 11.4 °C 9.3 °C 1024.6 hPa South 9.5 km/h 14.8 km/h 87 % 0 mm
08:51 11.4 °C 9.3 °C 1024.6 hPa North 6.1 km/h 11.1 km/h 87 % 0 mm
08:56 11.5 °C 9.2 °C 1024.6 hPa South 11.3 km/h 18.5 km/h 86 % 0 mm
09:01 11.6 °C 9.3 °C 1024.6 hPa South 11.3 km/h 17.7 km/h 86 % 0 mm
09:06 11.8 °C 9.3 °C 1024.6 hPa South 11.7 km/h 18.5 km/h 85 % 0 mm
09:11 11.9 °C 9.2 °C 1024.6 hPa South 13 km/h 20.4 km/h 83 % 0 mm
09:16 12.2 °C 9.2 °C 1024.6 hPa South 15.9 km/h 20.4 km/h 82 % 0 mm
09:21 12.3 °C 9.1 °C 1024.9 hPa SSE 11.9 km/h 18.5 km/h 81 % 0 mm
09:26 12.2 °C 9.2 °C 1024.9 hPa North 14 km/h 22.2 km/h 82 % 0 mm
09:31 12.1 °C 9.1 °C 1025.3 hPa North 11.3 km/h 18.5 km/h 82 % 0 mm
09:36 12.1 °C 9.1 °C 1025.3 hPa South 7.9 km/h 13 km/h 82 % 0 mm
09:41 12.1 °C 9.1 °C 1025.3 hPa South 14.2 km/h 18.5 km/h 82 % 0 mm
09:46 12.2 °C 9.2 °C 1025.3 hPa SSE 8.4 km/h 11.1 km/h 82 % 0 mm
09:51 12.3 °C 9.2 °C 1025.3 hPa SE 10.6 km/h 24.1 km/h 81 % 0 mm
09:56 12.4 °C 8.7 °C 1025.6 hPa SSE 18.7 km/h 35.2 km/h 78 % 0 mm
10:01 12.6 °C 8.6 °C 1025.6 hPa SSE 9.3 km/h 14.8 km/h 77 % 0 mm
10:06 12.6 °C 8.3 °C 1025.6 hPa South 18.5 km/h 27.8 km/h 75 % 0 mm
10:11 12.7 °C 8 °C 1025.6 hPa South 15.1 km/h 31.5 km/h 73 % 0 mm
10:16 12.8 °C 8.1 °C 1026 hPa SSE 16.7 km/h 24.1 km/h 73 % 0 mm
10:21 12.9 °C 8 °C 1026 hPa SE 11.6 km/h 18.5 km/h 72 % 0 mm
10:26 13.1 °C 7.5 °C 1026 hPa SSE 20 km/h 27.8 km/h 69 % 0 mm
10:31 13.1 °C 7.3 °C 1026 hPa SSE 18.7 km/h 33.3 km/h 68 % 0 mm
10:36 13.3 °C 7.6 °C 1026 hPa South 12.6 km/h 22.2 km/h 68 % 0 mm
10:41 13.5 °C 7.1 °C 1026 hPa SSE 15.6 km/h 22.2 km/h 65 % 0 mm
10:46 13.6 °C 7.3 °C 1026.3 hPa SSE 14.6 km/h 22.2 km/h 66 % 0 mm
10:51 13.4 °C 6.5 °C 1026.3 hPa SSE 17.4 km/h 24.1 km/h 63 % 0 mm
10:56 13.4 °C 6.3 °C 1026.3 hPa SSE 13.4 km/h 18.5 km/h 62 % 0 mm
11:01 13.4 °C 6.3 °C 1026.3 hPa SSE 21.9 km/h 33.3 km/h 62 % 0 mm
11:06 13.6 °C 6.4 °C 1026.3 hPa SSE 17.1 km/h 25.9 km/h 62 % 0 mm
11:11 13.6 °C 5.9 °C 1026.3 hPa SSE 13.8 km/h 20.4 km/h 60 % 0 mm
11:16 13.9 °C 6.5 °C 1026.3 hPa SE 9.8 km/h 14.8 km/h 61 % 0 mm
11:21 13.9 °C 6.1 °C 1026.3 hPa South 12.7 km/h 18.5 km/h 59 % 0 mm
11:26 14.1 °C 5.9 °C 1026.6 hPa SSE 11.3 km/h 18.5 km/h 58 % 0 mm
11:31 14.1 °C 5.7 °C 1026.6 hPa SSW 13.4 km/h 22.5 km/h 57 % 0 mm
11:36 14.1 °C 5.9 °C 1026.6 hPa South 16.1 km/h 27.8 km/h 58 % 0 mm
11:41 13.9 °C 5.2 °C 1026.6 hPa South 16.7 km/h 27.8 km/h 56 % 0 mm
11:46 13.9 °C 5.5 °C 1026.3 hPa SSE 8.4 km/h 16.7 km/h 57 % 0 mm
11:51 14.3 °C 5.9 °C 1026.6 hPa South 16.6 km/h 22.2 km/h 57 % 0 mm
11:56 14.4 °C 5.7 °C 1026.6 hPa SSE 22.9 km/h 31.5 km/h 56 % 0 mm
12:01 14.3 °C 5.3 °C 1026.3 hPa SSE 17.9 km/h 29.6 km/h 55 % 0 mm
12:06 14.5 °C 6.1 °C 1026.3 hPa SE 25.6 km/h 33.8 km/h 57 % 0 mm
12:11 14.4 °C 6 °C 1026.3 hPa SSE 22.2 km/h 35.2 km/h 57 % 0 mm
12:16 14.2 °C 6.6 °C 1026.6 hPa SSE 16.6 km/h 29.6 km/h 60 % 0 mm
12:21 14.1 °C 6.7 °C 1026.6 hPa South 20.3 km/h 31.5 km/h 61 % 0 mm
12:26 14.1 °C 6.9 °C 1026.6 hPa South 14.8 km/h 27.8 km/h 62 % 0 mm
12:31 14.2 °C 6.3 °C 1026.6 hPa SSE 17.7 km/h 31.5 km/h 59 % 0 mm
12:36 14.2 °C 5.8 °C 1026.6 hPa SSE 19.6 km/h 37 km/h 57 % 0 mm
12:41 14.2 °C 6.3 °C 1026.6 hPa SSE 18.7 km/h 31.5 km/h 59 % 0 mm
12:42 14.3 °C 6.4 °C 1026.3 hPa SSE 16.9 km/h 27.8 km/h 59 % 0 mm
12:47 14.5 °C 6.6 °C 1026.3 hPa South 16.3 km/h 20.4 km/h 59 % 0 mm
12:52 14.6 °C 5.9 °C 1026.3 hPa SSE 17.7 km/h 37 km/h 56 % 0 mm
12:57 14.9 °C 5.9 °C 1026.3 hPa SSE 15.6 km/h 22.2 km/h 55 % 0 mm
13:02 15.2 °C 5.9 °C 1026.3 hPa SSE 17.7 km/h 24.1 km/h 54 % 0 mm
13:07 15.2 °C 5.7 °C 1026.3 hPa South 14.8 km/h 27.8 km/h 53 % 0 mm
13:12 14.9 °C 5.4 °C 1026.3 hPa SSW 13.7 km/h 35.2 km/h 53 % 0 mm
13:17 15.1 °C 5.6 °C 1026.3 hPa South 18.2 km/h 27.8 km/h 53 % 0 mm
13:22 15.3 °C 5.2 °C 1026.3 hPa SSW 15.9 km/h 31.5 km/h 51 % 0 mm
13:27 15.4 °C 5 °C 1026 hPa SSE 19.3 km/h 29.6 km/h 50 % 0 mm
13:32 15.7 °C 5 °C 1026 hPa South 18.5 km/h 22.2 km/h 49 % 0 mm
13:37 15.7 °C 5 °C 1026 hPa SSW 17.9 km/h 31.5 km/h 49 % 0 mm
13:42 16 °C 5.3 °C 1026 hPa South 16.4 km/h 22.2 km/h 49 % 0 mm
13:47 16.4 °C 4.4 °C 1026 hPa SE 17.5 km/h 31.5 km/h 45 % 0 mm
13:52 16.6 °C 4.3 °C 1026 hPa South 25.9 km/h 31.5 km/h 44 % 0 mm
13:57 16.6 °C 4.2 °C 1025.6 hPa South 16.3 km/h 29.6 km/h 44 % 0 mm
14:02 16.8 °C 4.8 °C 1025.6 hPa South 21.7 km/h 31.5 km/h 45 % 0 mm
14:07 16.9 °C 4.9 °C 1025.6 hPa SE 16.1 km/h 31.5 km/h 45 % 0 mm
14:12 16.8 °C 4.1 °C 1025.6 hPa South 21.1 km/h 27.8 km/h 43 % 0 mm
14:17 16.8 °C 4.1 °C 1025.3 hPa South 16.1 km/h 25.7 km/h 43 % 0 mm
14:22 17.2 °C 4.5 °C 1025.6 hPa SE 14.8 km/h 27.4 km/h 43 % 0 mm
14:27 17.5 °C 4.4 °C 1025.6 hPa South 20.8 km/h 31.5 km/h 42 % 0 mm
14:32 17.4 °C 4.3 °C 1025.3 hPa ESE 13.4 km/h 29.6 km/h 42 % 0 mm
14:37 17.6 °C 4.6 °C 1025.3 hPa SE 19.2 km/h 25.7 km/h 42 % 0 mm
14:42 17.6 °C 4.8 °C 1025.3 hPa SE 19.8 km/h 31.5 km/h 43 % 0 mm
14:47 17.5 °C 5.1 °C 1025.3 hPa SSE 21.6 km/h 33.3 km/h 44 % 0 mm
14:52 17.4 °C 4.3 °C 1025.3 hPa South 26.4 km/h 40.7 km/h 42 % 0 mm
14:57 17.4 °C 4.7 °C 1025.3 hPa SSE 15.8 km/h 37 km/h 43 % 0 mm
15:02 17.6 °C 4.9 °C 1025.3 hPa ESE 15.6 km/h 31.5 km/h 43 % 0 mm
15:07 17.7 °C 4.3 °C 1025.3 hPa SSE 21.7 km/h 33.3 km/h 41 % 0 mm
15:12 17.8 °C 5 °C 1025.3 hPa South 14 km/h 25.9 km/h 43 % 0 mm
15:17 17.8 °C 5.3 °C 1024.9 hPa SSE 22.2 km/h 37 km/h 44 % 0 mm
15:22 17.5 °C 5.1 °C 1025.3 hPa South 18.5 km/h 31.5 km/h 44 % 0 mm
15:27 17.5 °C 5.7 °C 1025.3 hPa South 22.7 km/h 35.2 km/h 46 % 0 mm
15:32 17.3 °C 6.2 °C 1025.3 hPa SE 16.7 km/h 25.9 km/h 48 % 0 mm
15:37 17.3 °C 6.2 °C 1024.9 hPa SSE 18 km/h 27.8 km/h 48 % 0 mm
15:42 17.7 °C 6.5 °C 1025.3 hPa SE 27.8 km/h 40.2 km/h 48 % 0 mm
15:47 17.1 °C 6.8 °C 1025.3 hPa SSE 15.8 km/h 29.6 km/h 51 % 0 mm
15:52 16.9 °C 6.4 °C 1025.3 hPa South 22 km/h 29.6 km/h 50 % 0 mm
15:57 17.1 °C 6.9 °C 1025.3 hPa SSE 19.5 km/h 31.5 km/h 51 % 0 mm
16:02 16.8 °C 6.3 °C 1025.3 hPa SE 23.7 km/h 40.2 km/h 50 % 0 mm
16:07 16.4 °C 6.2 °C 1025.3 hPa SSE 24.6 km/h 38.9 km/h 51 % 0 mm
16:12 16.4 °C 6.6 °C 1025.3 hPa SSE 16.7 km/h 27.8 km/h 52 % 0 mm
16:17 16.5 °C 6.1 °C 1025.3 hPa SE 15 km/h 29.6 km/h 50 % 0 mm
16:22 16.6 °C 6.1 °C 1025.3 hPa South 16.7 km/h 27.8 km/h 50 % 0 mm
16:27 16.9 °C 5.8 °C 1025.3 hPa South 18 km/h 24.1 km/h 48 % 0 mm
16:32 17.1 °C 6.3 °C 1025.3 hPa South 27.5 km/h 42.6 km/h 49 % 0 mm
16:37 16.6 °C 6.1 °C 1025.3 hPa SE 14.6 km/h 29.6 km/h 50 % 0 mm
16:42 16.4 °C 6 °C 1025.6 hPa SE 24.3 km/h 37 km/h 50 % 0 mm
16:47 16.3 °C 6.1 °C 1025.6 hPa SE 25.6 km/h 40.7 km/h 51 % 0 mm
16:52 16 °C 5.8 °C 1025.6 hPa SE 27 km/h 33.3 km/h 51 % 0 mm
16:57 15.8 °C 5.7 °C 1025.6 hPa SE 25.6 km/h 35.2 km/h 51 % 0 mm
17:02 15.9 °C 5.4 °C 1025.6 hPa SE 21.4 km/h 33.3 km/h 50 % 0 mm
17:07 15.8 °C 5.4 °C 1025.6 hPa SSE 26.6 km/h 29.6 km/h 50 % 0 mm
17:12 15.9 °C 5.4 °C 1025.6 hPa South 19.3 km/h 29.6 km/h 50 % 0 mm
17:17 15.9 °C 5.2 °C 1025.6 hPa SSE 29 km/h 42.6 km/h 49 % 0 mm
17:22 15.4 °C 6.4 °C 1026 hPa SE 18.3 km/h 37 km/h 55 % 0 mm
17:25 15.3 °C 6.3 °C 1026 hPa SSE 24.3 km/h 29 km/h 55 % 0 mm
17:30 15.2 °C 6.5 °C 1026 hPa ESE 17.5 km/h 37 km/h 56 % 0 mm
17:35 15.2 °C 6.2 °C 1025.6 hPa SSE 21.9 km/h 38.9 km/h 55 % 0 mm
17:40 15.2 °C 6.4 °C 1026 hPa SSE 23.8 km/h 33.3 km/h 56 % 0 mm
17:45 15 °C 6.3 °C 1026 hPa SSE 23.7 km/h 37 km/h 56 % 0 mm
17:50 14.9 °C 6.2 °C 1026 hPa South 20.1 km/h 35.2 km/h 56 % 0 mm
17:55 14.8 °C 6.1 °C 1026 hPa South 15.3 km/h 33.3 km/h 56 % 0 mm
18:00 14.9 °C 6.2 °C 1026 hPa SSE 23.7 km/h 37 km/h 56 % 0 mm
18:05 14.9 °C 6.2 °C 1026 hPa SE 27.8 km/h 40.2 km/h 56 % 0 mm
18:10 14.7 °C 5.8 °C 1026 hPa SSE 18 km/h 31.5 km/h 55 % 0 mm
18:15 14.7 °C 5.7 °C 1026 hPa SSE 22.2 km/h 31.5 km/h 55 % 0 mm
18:20 14.7 °C 5.7 °C 1026 hPa SSE 16.9 km/h 31.5 km/h 55 % 0 mm
18:25 14.7 °C 6 °C 1026 hPa SSE 22 km/h 27.8 km/h 56 % 0 mm
18:30 14.4 °C 6 °C 1026 hPa North 26.4 km/h 38.9 km/h 57 % 0 mm
18:35 14.2 °C 6.1 °C 1026 hPa SE 22.4 km/h 38.9 km/h 58 % 0 mm
18:40 14.1 °C 5.9 °C 1026 hPa ESE 21.4 km/h 31.5 km/h 58 % 0 mm
18:46 14.1 °C 5.9 °C 1026 hPa SE 10.3 km/h 29.6 km/h 58 % 0 mm
18:51 14.1 °C 5.7 °C 1026 hPa SE 22 km/h 31.5 km/h 57 % 0 mm
18:56 14.1 °C 5.2 °C 1026 hPa SSE 25.3 km/h 32.2 km/h 55 % 0 mm
19:01 14.1 °C 4.9 °C 1026 hPa SSE 16.3 km/h 24.1 km/h 54 % 0 mm
19:06 14 °C 4.8 °C 1026 hPa SE 19.8 km/h 35.2 km/h 54 % 0 mm
19:11 14 °C 5.1 °C 1026 hPa SE 25.3 km/h 29 km/h 55 % 0 mm
19:16 14.1 °C 5.4 °C 1026 hPa SE 14.5 km/h 31.5 km/h 56 % 0 mm
19:21 13.9 °C 5.1 °C 1026.3 hPa SE 17.4 km/h 33.3 km/h 55 % 0 mm
19:26 13.9 °C 5 °C 1026.3 hPa SSE 17.7 km/h 25.9 km/h 55 % 0 mm
19:31 13.8 °C 4.9 °C 1026.3 hPa SSE 17.7 km/h 31.5 km/h 55 % 0 mm
19:36 13.8 °C 4.9 °C 1026.3 hPa SSE 21.2 km/h 38.9 km/h 55 % 0 mm
19:41 13.7 °C 4.8 °C 1026.3 hPa SSE 22 km/h 35.2 km/h 55 % 0 mm
19:46 13.6 °C 4.7 °C 1026.3 hPa SE 19 km/h 31.5 km/h 55 % 0 mm
19:51 13.4 °C 4.3 °C 1026.3 hPa SSE 21.6 km/h 38.9 km/h 54 % 0 mm
19:56 13.4 °C 4.5 °C 1026.3 hPa SE 20.9 km/h 31.5 km/h 55 % 0 mm
20:01 13.3 °C 4.5 °C 1026.3 hPa SSE 16.9 km/h 27.8 km/h 55 % 0 mm
20:06 13.4 °C 4.8 °C 1026.6 hPa SSE 16.3 km/h 22.2 km/h 56 % 0 mm
20:11 13.4 °C 5.1 °C 1026.6 hPa SE 18.5 km/h 24.1 km/h 57 % 0 mm
20:16 13.4 °C 5.1 °C 1026.6 hPa SE 21.6 km/h 31.5 km/h 57 % 0 mm
20:21 13.3 °C 5 °C 1026.6 hPa SE 28 km/h 35.2 km/h 57 % 0 mm
20:26 13.3 °C 5.2 °C 1026.6 hPa SSE 21.7 km/h 37 km/h 58 % 0 mm
20:31 13.2 °C 5.1 °C 1026.6 hPa SE 15 km/h 25.9 km/h 58 % 0 mm
20:36 13.2 °C 4.9 °C 1027 hPa SSE 21.7 km/h 31.5 km/h 57 % 0 mm
20:41 13.1 °C 4.8 °C 1027 hPa SSE 22.2 km/h 33.3 km/h 57 % 0 mm
20:46 13 °C 4.7 °C 1027 hPa SSE 18.2 km/h 25.9 km/h 57 % 0 mm
20:51 12.9 °C 4.6 °C 1027 hPa SE 21.2 km/h 31.5 km/h 57 % 0 mm
20:56 12.8 °C 4.8 °C 1027 hPa SSE 14.6 km/h 20.4 km/h 58 % 0 mm
21:01 12.7 °C 4.6 °C 1027 hPa SSE 25.6 km/h 38.9 km/h 58 % 0 mm
21:16 12.2 °C 4.9 °C 1027.3 hPa SE 13.7 km/h 31.5 km/h 61 % 0 mm
21:21 12.1 °C 5.1 °C 1027.3 hPa SSE 13.7 km/h 29.6 km/h 62 % 0 mm
21:26 12 °C 5.2 °C 1027.3 hPa SSE 14.3 km/h 31.5 km/h 63 % 0 mm
21:31 11.8 °C 5 °C 1027.3 hPa SE 19.5 km/h 29.6 km/h 63 % 0 mm
21:36 11.7 °C 5.1 °C 1027.3 hPa SE 14 km/h 24.1 km/h 64 % 0 mm
21:41 11.7 °C 5.3 °C 1027.3 hPa SSE 12.2 km/h 22.2 km/h 65 % 0 mm
21:46 11.5 °C 5.2 °C 1027.7 hPa SSE 10.5 km/h 20.4 km/h 65 % 0 mm
21:51 11.4 °C 5.3 °C 1027.7 hPa SSE 11.7 km/h 20.4 km/h 66 % 0 mm
21:56 11.2 °C 5.1 °C 1027.7 hPa SSE 14.2 km/h 20.4 km/h 66 % 0 mm
22:01 11.1 °C 5.2 °C 1027.7 hPa SSE 13.5 km/h 22.2 km/h 67 % 0 mm
22:06 11.1 °C 5.2 °C 1027.7 hPa SSE 16.7 km/h 18.5 km/h 67 % 0 mm
22:12 10.9 °C 5.3 °C 1027.7 hPa SSE 12.6 km/h 27.8 km/h 68 % 0 mm
22:17 10.9 °C 5.4 °C 1027.7 hPa SSE 14 km/h 20.4 km/h 69 % 0 mm
22:22 10.8 °C 5.4 °C 1027.7 hPa SSE 16.4 km/h 24.1 km/h 69 % 0 mm
22:27 10.8 °C 5.5 °C 1027.3 hPa SSE 16.9 km/h 16.9 km/h 70 % 0 mm
22:32 10.7 °C 5.4 °C 1027.3 hPa South 12.1 km/h 24.1 km/h 70 % 0 mm
22:37 10.7 °C 5.6 °C 1027.3 hPa South 14.3 km/h 29.6 km/h 71 % 0 mm
22:42 10.7 °C 5.7 °C 1027.3 hPa South 9.8 km/h 18.5 km/h 71 % 0 mm
22:47 10.7 °C 5.6 °C 1027.7 hPa SSE 13 km/h 22.2 km/h 71 % 0 mm
22:51 10.6 °C 5.8 °C 1027.7 hPa SSE 13.4 km/h 13.4 km/h 72 % 0 mm
22:57 10.6 °C 5.7 °C 1027.7 hPa SSE 15.8 km/h 20.4 km/h 72 % 0 mm
23:02 10.6 °C 5.7 °C 1027.7 hPa SSE 15.8 km/h 15.8 km/h 72 % 0 mm
23:06 10.5 °C 5.7 °C 1027.7 hPa SSE 15.6 km/h 18.5 km/h 72 % 0 mm
23:11 10.5 °C 5.9 °C 1027.7 hPa SSE 13.8 km/h 27.8 km/h 73 % 0 mm
23:16 10.4 °C 5.8 °C 1027.7 hPa SSE 14.6 km/h 24.1 km/h 73 % 0 mm
23:21 10.4 °C 5.8 °C 1027.3 hPa South 15.1 km/h 25.7 km/h 73 % 0 mm
23:27 10.4 °C 6 °C 1027.7 hPa South 13.8 km/h 19.3 km/h 74 % 0 mm
23:31 10.5 °C 6.1 °C 1027.3 hPa South 14.8 km/h 20.9 km/h 74 % 0 mm
23:37 10.6 °C 6.2 °C 1027.3 hPa South 14.2 km/h 22.2 km/h 74 % 0 mm
23:42 10.7 °C 6.2 °C 1027.3 hPa North 14.2 km/h 18.5 km/h 74 % 0 mm
23:47 10.7 °C 6.3 °C 1027.3 hPa South 18.8 km/h 20.4 km/h 74 % 0 mm
23:52 10.7 °C 6.3 °C 1027.3 hPa South 14.6 km/h 20.4 km/h 74 % 0 mm
23:57 10.8 °C 6.4 °C 1027.3 hPa South 17.2 km/h 31.5 km/h 74 % 0 mm
Ararat Weather
Compliments of Weather Underground - 2.25 mb
Click here to send mail.


ABOUT

Live weather data from Ararat, Victoria, Australia, 3377
Data uploaded from Cumulus every 5 minutes to Weather Underground.
This site then downloads the raw data for formatting and display.
Metric and imperial data can be displayed. Graphs and historical data available.
Includes Sun and Moon times and rain image live from BOM.

Check out Ararat Weather on Facebook, Twitter and Google +

Help support ongoing costs by checking out the ads





Follow @AraratWeather